This is the latest recevied weather packets stored in our database for station/object SPRFLD. If no packets are shown the sender has not sent any weather packets the latest 10 day(s).
| Time | Temp. | Humidity | Pressure | Rain* | Wind** | Luminosity | Snow |
|---|---|---|---|---|---|---|---|
| 1777642696 | 7.78° C | 94% | 1017.6 hPa | 0 mm | - | - | - |
| 1777640910 | 7.22° C | 94% | 1017.6 hPa | 0 mm | - | - | - |
| 1777639704 | 7.22° C | 94% | 1017.4 hPa | 0 mm | - | - | - |
| 1777638527 | 7.22° C | 93% | 1017.4 hPa | 0 mm | - | - | - |
| 1777637303 | 7.22° C | 93% | 1017.4 hPa | 0 mm | - | - | - |
| 1777633691 | 7.78° C | 90% | 1017.3 hPa | 0 mm | - | - | - |
| 1777631884 | 8.33° C | 89% | 1017.2 hPa | 0 mm | - | - | - |
| 1777630108 | 8.89° C | 87% | 1017.2 hPa | 0 mm | - | - | - |
| 1777622309 | 11.67° C | 81% | 1017.6 hPa | 0 mm | - | - | - |
| 1777616285 | 13.89° C | 73% | 1017.4 hPa | 0 mm | - | - | - |
| 1777613907 | 15° C | 69% | 1017.5 hPa | 0 mm | - | - | - |
| 1777612104 | 16.11° C | 65% | 1017.5 hPa | 0 mm | - | - | - |
| 1777610899 | 16.67° C | 61% | 1017.3 hPa | 0 mm | - | - | - |
| 1777602494 | 19.44° C | 52% | 1016.2 hPa | 0 mm | - | - | - |
| 1777600710 | 19.44° C | 49% | 1016.4 hPa | 0 mm | - | - | - |
| 1777600088 | 20° C | 47% | 1016.4 hPa | 0 mm | - | - | - |
| 1777592312 | 25° C | 40% | 1016.7 hPa | 0 mm | - | - | - |
| 1777591108 | 24.44° C | 41% | 1016.9 hPa | 0 mm | - | - | - |
| 1777589925 | 24.44° C | 43% | 1017.1 hPa | 0 mm | - | - | - |
| 1777586301 | 23.33° C | 43% | 1017.9 hPa | 0 mm | - | - | - |
| 1777584539 | 22.78° C | 46% | 1017.9 hPa | 0 mm | - | - | - |
| 1777581488 | 21.67° C | 48% | 1018.2 hPa | 0 mm | - | - | - |
| 1777579682 | 20° C | 52% | 1018.3 hPa | 0 mm | - | - | - |
| 1777577905 | 17.78° C | 57% | 1018.4 hPa | 0 mm | - | - | - |
| 1777565295 | 10° C | 80% | 1019.6 hPa | 0 mm | - | - | - |
* Rain latest hour (hover to see other rain measurements)
** Current wind speed in m/s (hover to see current wind gust speed)